Time;durP1;ratioP1;P1;durP2;ratioP2;P2;SDS_P1;SDS_P2;PMS_P1;PMS_P2;Temp;Humidity;BMP_temperature;BMP_pressure;BME280_temperature;BME280_humidity;BME280_pressure;Samples;Min_cycle;Max_cycle;Signal;HPM_P1;HPM_P2
2023/07/22 00:00:36;;;;;;;14.37;7.93;;;13.70;99.90;;;;;;4249494;27;20212;-77
2023/07/22 00:02:38;;;;;;;12.23;8.00;;;13.70;99.90;;;;;;4248222;27;20291;-77
2023/07/22 00:04:40;;;;;;;10.97;7.80;;;13.70;99.90;;;;;;4251334;27;20216;-76
2023/07/22 00:06:42;;;;;;;14.23;8.90;;;13.70;99.90;;;;;;4250321;27;20240;-76
2023/07/22 00:08:44;;;;;;;14.57;8.27;;;13.70;99.90;;;;;;4252524;27;20204;-78
2023/07/22 00:10:50;;;;;;;12.13;8.40;;;13.60;99.90;;;;;;4250725;27;20261;-76
2023/07/22 00:12:52;;;;;;;14.53;9.50;;;13.60;99.90;;;;;;4252912;27;20306;-77
2023/07/22 00:14:54;;;;;;;16.27;8.97;;;13.60;99.90;;;;;;4251053;27;20565;-77
2023/07/22 00:16:56;;;;;;;11.90;8.67;;;13.60;99.90;;;;;;4257882;27;20262;-77
2023/07/22 00:18:58;;;;;;;14.50;9.73;;;13.60;99.90;;;;;;4249327;27;20207;-76
2023/07/22 00:21:01;;;;;;;10.77;8.17;;;13.50;99.90;;;;;;4246612;27;20248;-77
2023/07/22 00:23:03;;;;;;;13.30;9.80;;;13.50;99.90;;;;;;4248807;27;20212;-76
2023/07/22 00:25:05;;;;;;;13.90;9.73;;;13.50;99.90;;;;;;4250227;27;20279;-77
2023/07/22 00:27:08;;;;;;;15.07;9.00;;;13.50;99.90;;;;;;4253859;27;20689;-76
2023/07/22 00:29:10;;;;;;;13.17;9.47;;;13.50;99.90;;;;;;4247263;27;20208;-77
2023/07/22 00:31:12;;;;;;;14.43;10.03;;;13.40;99.90;;;;;;4246682;27;20207;-76
2023/07/22 00:33:14;;;;;;;15.77;10.77;;;13.40;99.90;;;;;;4251482;27;20204;-77
2023/07/22 00:35:16;;;;;;;13.80;10.37;;;13.40;99.90;;;;;;4245154;27;20228;-77
2023/07/22 00:37:19;;;;;;;12.63;9.40;;;13.40;99.90;;;;;;4250039;27;20223;-77
2023/07/22 00:39:21;;;;;;;14.30;10.23;;;13.40;99.90;;;;;;4249897;27;20817;-77
2023/07/22 00:41:23;;;;;;;12.50;10.37;;;13.40;99.90;;;;;;4241269;27;20569;-77
2023/07/22 00:43:25;;;;;;;18.10;11.70;;;13.30;99.90;;;;;;4249710;27;20235;-76
2023/07/22 00:45:27;;;;;;;17.43;11.70;;;13.30;99.90;;;;;;4247100;27;20304;-76
2023/07/22 00:47:28;;;;;;;19.23;11.00;;;13.30;99.90;;;;;;4244565;27;20760;-77
2023/07/22 00:49:31;;;;;;;15.57;11.37;;;13.20;99.90;;;;;;4249292;27;20224;-77
2023/07/22 00:51:33;;;;;;;16.47;11.40;;;13.20;99.90;;;;;;4245069;27;20300;-76
2023/07/22 00:53:36;;;;;;;13.37;10.37;;;13.20;99.90;;;;;;4249757;27;20739;-76
2023/07/22 00:55:39;;;;;;;20.50;12.50;;;13.10;99.90;;;;;;4256190;27;20667;-77
2023/07/22 00:57:41;;;;;;;17.20;11.93;;;13.10;99.90;;;;;;4248441;27;20223;-76
2023/07/22 00:59:44;;;;;;;17.10;12.10;;;13.10;99.90;;;;;;4247933;27;20302;-77
2023/07/22 01:01:45;;;;;;;18.53;13.37;;;13.10;99.90;;;;;;4241099;27;20216;-76
2023/07/22 01:03:47;;;;;;;19.97;12.50;;;13.10;99.90;;;;;;4251193;27;20203;-76
2023/07/22 01:05:51;;;;;;;15.73;10.97;;;13.10;99.90;;;;;;4249015;27;20297;-77
2023/07/22 01:07:53;;;;;;;20.57;12.70;;;13.00;99.90;;;;;;4248151;27;20204;-77
2023/07/22 01:09:58;;;;;;;16.57;11.57;;;13.00;99.90;;;;;;4246963;27;20207;-76
2023/07/22 01:12:00;;;;;;;18.97;12.93;;;13.00;99.90;;;;;;4248067;27;20819;-76
2023/07/22 01:14:03;;;;;;;19.57;12.13;;;13.00;99.90;;;;;;4245858;27;20572;-77
2023/07/22 01:16:06;;;;;;;17.87;12.30;;;13.00;99.90;;;;;;4309181;22;20248;-81
2023/07/22 01:18:09;;;;;;;18.33;11.93;;;13.00;99.90;;;;;;4221456;28;20212;-79
2023/07/22 01:20:11;;;;;;;17.40;11.57;;;12.90;99.90;;;;;;4226443;28;20209;-81
2023/07/22 01:22:14;;;;;;;23.47;12.80;;;12.90;99.90;;;;;;4222162;28;20603;-79
2023/07/22 01:24:18;;;;;;;20.43;14.13;;;13.00;99.90;;;;;;4224943;28;20612;-78
2023/07/22 01:26:21;;;;;;;18.67;12.23;;;13.20;99.90;;;;;;4220218;28;20260;-79
2023/07/22 01:28:22;;;;;;;22.73;13.20;;;13.00;99.90;;;;;;4219129;28;20219;-79
2023/07/22 01:30:23;;;;;;;18.90;12.37;;;13.00;99.90;;;;;;4222714;28;20213;-79
2023/07/22 01:32:25;;;;;;;16.13;11.73;;;13.00;99.90;;;;;;4220392;28;20210;-81
2023/07/22 01:34:27;;;;;;;17.97;12.73;;;13.00;99.90;;;;;;4225067;28;20644;-80
2023/07/22 01:36:29;;;;;;;16.53;12.07;;;13.00;99.90;;;;;;4214636;28;20226;-80
2023/07/22 01:38:31;;;;;;;16.63;11.50;;;13.00;99.90;;;;;;4214108;28;20237;-80
2023/07/22 01:40:35;;;;;;;20.97;13.50;;;13.00;99.90;;;;;;4216832;28;20213;-81
2023/07/22 01:42:36;;;;;;;18.60;12.20;;;13.00;99.90;;;;;;4217256;28;20229;-81
2023/07/22 01:44:38;;;;;;;18.43;12.33;;;13.00;99.90;;;;;;4217247;28;20224;-81
2023/07/22 01:46:39;;;;;;;17.53;12.97;;;13.00;99.90;;;;;;4216453;28;20232;-81
2023/07/22 01:48:42;;;;;;;20.87;12.97;;;13.10;99.90;;;;;;4211821;28;20208;-81
2023/07/22 01:50:44;;;;;;;20.30;12.93;;;13.00;99.90;;;;;;4215082;28;20662;-81
2023/07/22 01:52:46;;;;;;;20.03;12.47;;;13.00;99.90;;;;;;4212387;28;20332;-81
2023/07/22 01:54:48;;;;;;;20.80;14.33;;;13.00;99.90;;;;;;4212641;28;20181;-78
2023/07/22 01:56:53;;;;;;;21.80;12.60;;;13.00;99.90;;;;;;4215142;28;20236;-81
2023/07/22 01:58:55;;;;;;;18.40;12.57;;;13.00;99.90;;;;;;4215604;28;20209;-81
2023/07/22 02:00:57;;;;;;;18.53;13.37;;;13.00;99.90;;;;;;4214452;28;20244;-81
2023/07/22 02:02:59;;;;;;;17.63;13.50;;;13.00;99.90;;;;;;4215618;28;20237;-81
2023/07/22 02:05:01;;;;;;;25.73;15.07;;;13.00;99.90;;;;;;4215112;28;20315;-81
2023/07/22 02:07:03;;;;;;;20.47;13.77;;;12.90;99.90;;;;;;4213941;28;20562;-81
2023/07/22 02:09:08;;;;;;;23.03;14.90;;;13.00;99.90;;;;;;4212304;28;20232;-81
2023/07/22 02:11:11;;;;;;;19.33;13.53;;;12.90;99.90;;;;;;4216777;28;20205;-81
2023/07/22 02:13:14;;;;;;;22.30;13.20;;;12.90;99.90;;;;;;4213695;28;20204;-81
2023/07/22 02:15:17;;;;;;;18.50;13.67;;;12.90;99.90;;;;;;4216458;28;20252;-81
2023/07/22 02:17:20;;;;;;;17.93;12.83;;;12.90;99.90;;;;;;4214432;28;20251;-81
2023/07/22 02:19:22;;;;;;;23.67;14.23;;;12.90;99.90;;;;;;4219297;28;20721;-81
2023/07/22 02:21:24;;;;;;;18.27;13.20;;;12.80;99.90;;;;;;4213117;28;20223;-81
2023/07/22 02:23:26;;;;;;;22.77;14.10;;;12.90;99.90;;;;;;4214110;28;20201;-81
2023/07/22 02:25:28;;;;;;;21.53;13.70;;;12.80;99.90;;;;;;4213373;28;20712;-81
2023/07/22 02:27:30;;;;;;;20.50;12.90;;;12.90;99.90;;;;;;4215303;28;20205;-80
2023/07/22 02:29:33;;;;;;;19.10;13.37;;;12.90;99.90;;;;;;4214369;28;20208;-81
2023/07/22 02:31:35;;;;;;;19.23;13.00;;;12.90;99.90;;;;;;4214029;28;20725;-81
2023/07/22 02:33:37;;;;;;;19.03;13.33;;;12.90;99.90;;;;;;4211804;28;20219;-80
2023/07/22 02:35:39;;;;;;;21.20;13.60;;;12.90;99.90;;;;;;4214390;28;20212;-81
2023/07/22 02:37:41;;;;;;;19.97;13.23;;;12.80;99.90;;;;;;4213993;28;20229;-80
2023/07/22 02:39:43;;;;;;;18.37;12.53;;;12.90;99.90;;;;;;4216563;28;20212;-80
2023/07/22 02:41:45;;;;;;;17.73;13.20;;;12.80;99.90;;;;;;4214702;28;20669;-80
2023/07/22 02:43:47;;;;;;;18.23;13.03;;;12.80;99.90;;;;;;4212684;28;20202;-80
2023/07/22 02:45:53;;;;;;;18.17;13.70;;;12.80;99.90;;;;;;4211163;28;20945;-80
2023/07/22 02:47:55;;;;;;;21.20;13.40;;;12.80;99.90;;;;;;4213205;28;20205;-81
2023/07/22 02:49:57;;;;;;;18.53;13.07;;;12.80;99.90;;;;;;4214900;28;20212;-80
2023/07/22 02:51:59;;;;;;;19.30;12.93;;;12.80;99.90;;;;;;4212630;28;20209;-80
2023/07/22 02:54:01;;;;;;;16.90;12.10;;;12.90;99.90;;;;;;4207509;28;20573;-80
2023/07/22 02:56:04;;;;;;;16.90;12.03;;;12.90;99.90;;;;;;4211570;28;20253;-80
2023/07/22 02:58:06;;;;;;;17.23;12.43;;;12.80;99.90;;;;;;4213129;28;20217;-80
2023/07/22 03:00:08;;;;;;;16.03;11.73;;;12.90;99.90;;;;;;4213496;28;20205;-80
2023/07/22 03:02:14;;;;;;;19.30;13.13;;;12.90;99.90;;;;;;4213131;28;20216;-80
2023/07/22 03:04:15;;;;;;;23.00;14.73;;;12.90;99.90;;;;;;4212130;28;20810;-79
2023/07/22 03:06:16;;;;;;;21.47;14.60;;;12.90;99.90;;;;;;4213307;28;20232;-80
2023/07/22 03:08:19;;;;;;;20.27;13.47;;;12.90;99.90;;;;;;4212381;28;20653;-79
2023/07/22 03:10:21;;;;;;;21.47;14.90;;;12.90;99.90;;;;;;4212414;28;20286;-80
2023/07/22 03:12:23;;;;;;;18.87;13.57;;;12.90;99.90;;;;;;4211874;28;20668;-79
2023/07/22 03:14:26;;;;;;;19.70;14.33;;;12.90;99.90;;;;;;4213565;28;20222;-80
2023/07/22 03:16:28;;;;;;;29.67;16.53;;;12.90;99.90;;;;;;4214966;28;20233;-80
2023/07/22 03:18:31;;;;;;;20.73;14.50;;;12.90;99.90;;;;;;4214724;28;20305;-80
2023/07/22 03:20:33;;;;;;;22.43;15.93;;;12.90;99.90;;;;;;4215727;28;20282;-80
2023/07/22 03:22:35;;;;;;;23.50;14.07;;;12.90;99.90;;;;;;4218669;28;20587;-79
2023/07/22 03:24:37;;;;;;;21.70;13.73;;;12.90;99.90;;;;;;4215428;28;20225;-79
2023/07/22 03:26:39;;;;;;;17.90;12.90;;;12.90;99.90;;;;;;4215687;28;20594;-79
2023/07/22 03:28:41;;;;;;;22.90;13.93;;;12.90;99.90;;;;;;4213442;28;20636;-79
2023/07/22 03:30:43;;;;;;;19.70;13.20;;;12.90;99.90;;;;;;4209634;28;20685;-79
2023/07/22 03:32:47;;;;;;;21.07;13.33;;;12.90;99.90;;;;;;4212631;28;20451;-79
2023/07/22 03:34:50;;;;;;;23.20;14.20;;;12.90;99.90;;;;;;4213450;28;20214;-79
2023/07/22 03:36:52;;;;;;;22.77;15.03;;;12.90;99.90;;;;;;4213987;28;20306;-79
2023/07/22 03:38:53;;;;;;;25.67;13.77;;;12.90;99.90;;;;;;4213148;28;20270;-79
2023/07/22 03:40:55;;;;;;;18.80;12.90;;;12.90;99.90;;;;;;4213980;28;20213;-79
2023/07/22 03:42:58;;;;;;;19.60;12.40;;;12.90;99.90;;;;;;4217352;28;20209;-79
2023/07/22 03:45:00;;;;;;;20.90;12.67;;;12.90;99.90;;;;;;4213354;28;20225;-79
2023/07/22 03:47:02;;;;;;;15.53;10.73;;;12.80;99.90;;;;;;4212588;28;20325;-79
2023/07/22 03:49:04;;;;;;;17.33;12.00;;;12.90;99.90;;;;;;4213612;28;20238;-79
2023/07/22 03:51:08;;;;;;;21.73;12.80;;;12.90;99.90;;;;;;4214728;28;20224;-79
2023/07/22 03:53:10;;;;;;;17.70;12.10;;;12.80;99.90;;;;;;4212261;28;20306;-79
2023/07/22 03:55:12;;;;;;;19.07;12.23;;;12.80;99.90;;;;;;4211943;28;20201;-79
2023/07/22 03:57:14;;;;;;;19.90;13.50;;;12.80;99.90;;;;;;4210727;28;20232;-79
2023/07/22 03:59:16;;;;;;;16.13;11.00;;;12.70;99.90;;;;;;4213872;28;20284;-79
2023/07/22 04:01:17;;;;;;;21.07;13.07;;;12.70;99.90;;;;;;4213864;28;20270;-79
2023/07/22 04:03:20;;;;;;;20.73;13.13;;;12.70;99.90;;;;;;4211470;28;20208;-79
2023/07/22 04:05:22;;;;;;;15.83;11.43;;;12.70;99.90;;;;;;4215326;28;20232;-79
2023/07/22 04:07:25;;;;;;;19.97;13.50;;;12.70;99.90;;;;;;4213338;28;20662;-79
2023/07/22 04:09:28;;;;;;;17.73;12.43;;;12.70;99.90;;;;;;4212759;28;20206;-79
2023/07/22 04:11:30;;;;;;;16.37;11.17;;;12.70;99.90;;;;;;4207172;28;20217;-80
2023/07/22 04:13:35;;;;;;;18.47;13.20;;;12.60;99.90;;;;;;4211991;28;20213;-79
2023/07/22 04:15:37;;;;;;;16.80;12.20;;;12.60;99.90;;;;;;4211009;28;20235;-79
2023/07/22 04:17:39;;;;;;;18.80;12.20;;;12.60;99.90;;;;;;4214878;28;20228;-79
2023/07/22 04:19:41;;;;;;;18.20;12.33;;;12.60;99.90;;;;;;4214687;28;20213;-79
2023/07/22 04:21:44;;;;;;;18.47;12.77;;;12.60;99.90;;;;;;4212730;28;20296;-79
2023/07/22 04:23:47;;;;;;;20.00;12.03;;;12.50;99.90;;;;;;4213815;28;20205;-80
2023/07/22 04:25:49;;;;;;;19.63;13.40;;;12.60;99.90;;;;;;4216568;28;20324;-79
2023/07/22 04:27:51;;;;;;;20.00;12.93;;;12.50;99.90;;;;;;4214062;28;20296;-79
2023/07/22 04:29:53;;;;;;;18.23;12.03;;;12.50;99.90;;;;;;4213011;28;20216;-79
2023/07/22 04:31:59;;;;;;;18.23;12.97;;;12.30;99.90;;;;;;4209032;28;20866;-79
2023/07/22 04:34:01;;;;;;;19.50;12.97;;;12.60;99.90;;;;;;4211041;28;20206;-78
2023/07/22 04:36:09;;;;;;;21.80;13.10;;;12.60;99.90;;;;;;4212142;28;20244;-79
2023/07/22 04:38:13;;;;;;;23.37;13.27;;;12.70;99.90;;;;;;4211621;28;20278;-79
2023/07/22 04:40:18;;;;;;;27.80;13.67;;;12.70;99.90;;;;;;4211693;28;20620;-79
2023/07/22 04:42:20;;;;;;;21.77;13.07;;;12.80;99.90;;;;;;4212967;28;20628;-79
2023/07/22 04:44:23;;;;;;;21.37;14.40;;;12.80;99.90;;;;;;4212927;28;20292;-79
2023/07/22 04:46:26;;;;;;;21.33;13.57;;;12.80;99.90;;;;;;4210654;28;20251;-79
2023/07/22 04:48:28;;;;;;;20.30;13.43;;;13.00;99.90;;;;;;4209665;28;20307;-79
2023/07/22 04:50:33;;;;;;;21.67;13.63;;;12.80;99.90;;;;;;4213371;28;20223;-79
2023/07/22 04:52:35;;;;;;;19.60;13.50;;;12.80;99.90;;;;;;4216896;28;20237;-79
2023/07/22 04:54:37;;;;;;;24.03;14.77;;;12.90;99.90;;;;;;4214964;28;20221;-79
2023/07/22 04:56:40;;;;;;;24.00;15.67;;;12.90;99.90;;;;;;4214074;28;20232;-79
2023/07/22 04:58:43;;;;;;;25.17;15.87;;;13.00;99.90;;;;;;4214305;28;20278;-79
2023/07/22 05:00:45;;;;;;;23.53;15.43;;;13.00;99.90;;;;;;4214306;28;20223;-79
2023/07/22 05:02:48;;;;;;;22.67;14.77;;;13.00;99.90;;;;;;4210200;28;20274;-79
2023/07/22 05:04:50;;;;;;;24.33;15.93;;;13.10;99.90;;;;;;4212917;28;20290;-79
2023/07/22 05:06:52;;;;;;;30.30;17.23;;;13.10;99.90;;;;;;4215868;28;20736;-79
2023/07/22 05:08:53;;;;;;;28.67;17.40;;;13.10;99.90;;;;;;4214297;28;20209;-79
2023/07/22 05:10:54;;;;;;;29.63;16.27;;;13.00;99.90;;;;;;4219887;28;20242;-80
2023/07/22 05:12:58;;;;;;;35.03;17.03;;;13.10;99.90;;;;;;4215188;28;20205;-79
2023/07/22 05:15:00;;;;;;;28.47;16.47;;;13.00;99.90;;;;;;4213635;28;20229;-79
2023/07/22 05:17:01;;;;;;;24.40;15.13;;;13.10;99.90;;;;;;4213037;28;20231;-79
2023/07/22 05:19:05;;;;;;;29.53;15.03;;;13.10;99.90;;;;;;4213414;28;20970;-78
2023/07/22 05:21:07;;;;;;;28.87;15.47;;;13.10;99.90;;;;;;4213957;28;20214;-78
2023/07/22 05:23:09;;;;;;;25.77;15.87;;;13.10;99.90;;;;;;4214258;28;20211;-79
2023/07/22 05:25:14;;;;;;;32.97;17.37;;;13.10;99.90;;;;;;4213500;28;20240;-79
2023/07/22 05:27:17;;;;;;;25.30;16.70;;;13.20;99.90;;;;;;4212502;28;20278;-79
2023/07/22 05:29:20;;;;;;;31.23;17.27;;;13.30;99.90;;;;;;4213716;28;20538;-78
2023/07/22 05:31:22;;;;;;;28.70;16.77;;;13.30;99.90;;;;;;4212902;28;20297;-78
2023/07/22 05:33:24;;;;;;;24.13;16.23;;;13.30;99.90;;;;;;4214012;28;20244;-78
2023/07/22 05:35:26;;;;;;;26.50;16.07;;;13.30;99.90;;;;;;4213987;28;20679;-78
2023/07/22 05:37:28;;;;;;;30.17;16.87;;;13.30;99.90;;;;;;4209416;28;20324;-78
2023/07/22 05:39:30;;;;;;;27.27;16.07;;;13.40;99.90;;;;;;4220890;28;20201;-79
2023/07/22 05:41:34;;;;;;;29.10;15.20;;;13.50;99.90;;;;;;4212625;28;20206;-78
2023/07/22 05:43:36;;;;;;;27.27;15.03;;;13.50;99.90;;;;;;4216090;28;20229;-78
2023/07/22 05:45:39;;;;;;;25.97;14.30;;;13.50;99.90;;;;;;4211978;28;20226;-78
2023/07/22 05:47:41;;;;;;;25.67;14.20;;;13.50;99.90;;;;;;4212448;28;20284;-78
2023/07/22 05:49:43;;;;;;;27.47;14.07;;;13.50;99.90;;;;;;4214865;28;20255;-77
2023/07/22 05:51:45;;;;;;;23.13;14.50;;;13.50;99.90;;;;;;4215955;28;20281;-78
2023/07/22 05:53:47;;;;;;;22.90;13.07;;;13.50;99.90;;;;;;4214810;28;20240;-80
2023/07/22 05:55:49;;;;;;;21.73;13.37;;;13.60;99.90;;;;;;4213286;28;20314;-78
2023/07/22 05:57:50;;;;;;;19.83;12.40;;;13.60;99.90;;;;;;4215895;28;20218;-77
2023/07/22 05:59:52;;;;;;;24.90;13.77;;;13.60;99.90;;;;;;4213900;28;20198;-79
2023/07/22 06:01:55;;;;;;;26.60;13.40;;;13.60;99.90;;;;;;4213276;28;20233;-78
2023/07/22 06:04:00;;;;;;;21.27;12.90;;;13.70;99.90;;;;;;4212717;28;20236;-77
2023/07/22 06:06:01;;;;;;;21.97;13.33;;;13.70;99.90;;;;;;4212794;28;20679;-77
2023/07/22 06:08:05;;;;;;;26.67;13.77;;;13.70;99.90;;;;;;4213122;28;20642;-78
2023/07/22 06:10:08;;;;;;;21.00;12.50;;;13.80;99.90;;;;;;4214082;28;20248;-77
2023/07/22 06:12:09;;;;;;;24.27;12.73;;;13.80;99.90;;;;;;4212314;28;20205;-78
2023/07/22 06:14:11;;;;;;;20.93;12.57;;;13.80;99.90;;;;;;4214930;28;20244;-75
2023/07/22 06:16:14;;;;;;;21.17;11.03;;;13.90;99.90;;;;;;4210708;28;20247;-75
2023/07/22 06:18:17;;;;;;;19.87;10.57;;;13.90;99.90;;;;;;4211589;28;20297;-75
2023/07/22 06:20:20;;;;;;;21.13;11.00;;;13.90;99.90;;;;;;4211342;28;20204;-75
2023/07/22 06:22:22;;;;;;;19.10;10.00;;;13.90;99.90;;;;;;4212294;28;20241;-78
2023/07/22 06:24:24;;;;;;;18.23;9.73;;;14.00;99.90;;;;;;4214264;28;20306;-76
2023/07/22 06:26:26;;;;;;;17.97;9.93;;;14.00;99.90;;;;;;4212523;28;20235;-75
2023/07/22 06:28:27;;;;;;;14.67;9.07;;;14.00;99.90;;;;;;4215191;28;20214;-75
2023/07/22 06:30:29;;;;;;;16.93;7.80;;;14.00;99.90;;;;;;4211697;28;20304;-76
2023/07/22 06:32:31;;;;;;;17.77;9.27;;;14.20;99.90;;;;;;4214505;28;20222;-74
2023/07/22 06:34:35;;;;;;;16.83;8.20;;;14.20;99.90;;;;;;4213336;28;20225;-75
2023/07/22 06:36:36;;;;;;;16.50;8.67;;;14.20;99.90;;;;;;4212553;28;20244;-73
2023/07/22 06:38:41;;;;;;;12.13;8.13;;;14.30;99.90;;;;;;4211955;28;20263;-74
2023/07/22 06:40:43;;;;;;;14.17;7.70;;;14.30;99.90;;;;;;4212730;28;20233;-74
2023/07/22 06:42:45;;;;;;;13.67;7.60;;;14.30;99.90;;;;;;4211652;28;20210;-75
2023/07/22 06:44:47;;;;;;;16.80;8.10;;;14.30;99.90;;;;;;4212719;28;20213;-74
2023/07/22 06:46:49;;;;;;;17.00;7.67;;;14.40;99.90;;;;;;4215353;28;20330;-74
2023/07/22 06:48:51;;;;;;;14.37;7.10;;;14.50;99.90;;;;;;4211696;28;20297;-75
2023/07/22 06:50:54;;;;;;;13.40;6.77;;;14.40;99.90;;;;;;4212019;28;20243;-76
2023/07/22 06:52:56;;;;;;;27.73;7.60;;;14.50;99.90;;;;;;4213563;28;20302;-75
2023/07/22 06:54:58;;;;;;;12.50;6.90;;;14.60;99.90;;;;;;4211764;28;20212;-76
2023/07/22 06:57:00;;;;;;;13.67;6.80;;;14.60;99.90;;;;;;4209861;28;20248;-75
2023/07/22 06:59:02;;;;;;;13.60;6.87;;;14.60;99.90;;;;;;4212438;28;20204;-77
2023/07/22 07:01:04;;;;;;;14.50;6.43;;;14.70;99.90;;;;;;4211966;28;20724;-77
2023/07/22 07:03:06;;;;;;;14.97;6.73;;;14.70;99.90;;;;;;4211080;28;20605;-78
2023/07/22 07:05:08;;;;;;;15.73;6.33;;;14.70;99.90;;;;;;4216542;28;20239;-80
2023/07/22 07:07:12;;;;;;;10.90;6.37;;;14.80;99.90;;;;;;4212020;28;20691;-79
2023/07/22 07:09:14;;;;;;;10.53;6.07;;;14.80;99.90;;;;;;4208864;28;20202;-79
2023/07/22 07:11:17;;;;;;;9.43;6.07;;;14.80;99.90;;;;;;4213310;28;20386;-78
2023/07/22 07:13:19;;;;;;;10.97;5.37;;;15.00;99.90;;;;;;4207340;28;20215;-75
2023/07/22 07:15:21;;;;;;;12.93;5.90;;;14.90;99.90;;;;;;4213076;28;20201;-74
2023/07/22 07:17:23;;;;;;;9.43;5.30;;;15.10;99.90;;;;;;4213091;28;20315;-75
2023/07/22 07:19:28;;;;;;;8.10;4.77;;;15.10;99.90;;;;;;4211258;28;20704;-75
2023/07/22 07:21:30;;;;;;;13.80;5.53;;;15.20;99.90;;;;;;4207206;28;20288;-75
2023/07/22 07:23:34;;;;;;;8.57;5.57;;;15.30;99.90;;;;;;4208572;28;20799;-75
2023/07/22 07:25:36;;;;;;;10.60;6.00;;;15.20;99.90;;;;;;4212260;28;20276;-79
2023/07/22 07:27:37;;;;;;;10.83;5.20;;;15.30;99.90;;;;;;4221098;28;20235;-79
2023/07/22 07:29:39;;;;;;;10.30;4.83;;;15.40;99.90;;;;;;4219905;28;20208;-79
2023/07/22 07:31:41;;;;;;;9.37;5.00;;;15.40;99.90;;;;;;4208408;28;20676;-79
2023/07/22 07:33:42;;;;;;;8.77;4.70;;;15.50;99.90;;;;;;4212310;28;20296;-77
2023/07/22 07:35:47;;;;;;;8.43;4.40;;;15.50;99.90;;;;;;4213940;28;20208;-78
2023/07/22 07:37:49;;;;;;;7.00;4.70;;;15.50;99.90;;;;;;4213677;28;20205;-78
2023/07/22 07:39:52;;;;;;;8.57;4.70;;;15.60;99.90;;;;;;4212335;28;20653;-79
2023/07/22 07:41:54;;;;;;;11.73;4.93;;;15.70;99.90;;;;;;4219187;28;20236;-78
2023/07/22 07:43:56;;;;;;;7.27;5.20;;;15.70;99.90;;;;;;4214615;28;20215;-79
2023/07/22 07:46:13;;;;;;;7.83;4.60;;;15.70;99.90;;;;;;4213730;28;20224;-79
2023/07/22 07:48:15;;;;;;;7.53;4.90;;;15.80;99.90;;;;;;4210835;28;20197;-79
2023/07/22 07:50:17;;;;;;;9.13;4.73;;;15.80;99.90;;;;;;4214699;28;20258;-79
2023/07/22 07:52:19;;;;;;;8.00;4.47;;;15.90;99.90;;;;;;4211637;28;20299;-79
2023/07/22 07:54:22;;;;;;;7.50;4.43;;;15.90;99.90;;;;;;4211346;28;20297;-79
2023/07/22 07:56:26;;;;;;;8.40;4.60;;;15.90;99.90;;;;;;4212396;28;20266;-79
2023/07/22 07:58:27;;;;;;;8.00;4.30;;;16.00;99.90;;;;;;4210010;28;20315;-79
2023/07/22 08:00:29;;;;;;;6.80;3.47;;;16.00;99.90;;;;;;4214684;28;20251;-79
2023/07/22 08:02:31;;;;;;;5.60;3.47;;;16.10;99.90;;;;;;4211881;28;20331;-79
2023/07/22 08:04:33;;;;;;;5.30;3.20;;;16.10;99.90;;;;;;4211298;28;20221;-78
2023/07/22 08:06:37;;;;;;;6.07;3.23;;;16.10;99.90;;;;;;4207846;28;20229;-77
2023/07/22 08:08:39;;;;;;;6.03;3.47;;;16.00;99.90;;;;;;4208972;28;20739;-78
2023/07/22 08:10:41;;;;;;;6.13;3.70;;;16.20;99.90;;;;;;4211491;28;20327;-78
2023/07/22 08:12:44;;;;;;;5.43;3.40;;;16.20;99.90;;;;;;4210443;28;20599;-78
2023/07/22 08:14:46;;;;;;;5.47;3.50;;;16.20;99.90;;;;;;4211774;28;20300;-79
2023/07/22 08:16:48;;;;;;;7.53;3.77;;;16.30;99.90;;;;;;4219895;28;20271;-82
2023/07/22 08:18:52;;;;;;;6.07;3.57;;;16.30;99.90;;;;;;4215861;28;20209;-81
2023/07/22 08:20:54;;;;;;;5.47;3.20;;;16.40;99.90;;;;;;4217181;28;20213;-81
2023/07/22 08:22:56;;;;;;;8.20;3.77;;;16.50;99.90;;;;;;4213823;28;20224;-78
2023/07/22 08:24:58;;;;;;;6.80;3.93;;;16.60;99.90;;;;;;4216541;28;20946;-79
2023/07/22 08:27:00;;;;;;;9.03;4.50;;;16.50;99.90;;;;;;4216091;28;20233;-79
2023/07/22 08:29:03;;;;;;;4.67;3.40;;;16.60;99.90;;;;;;4217200;28;20775;-80
2023/07/22 08:31:06;;;;;;;7.03;4.07;;;16.60;99.90;;;;;;4212828;28;20210;-77
2023/07/22 08:33:11;;;;;;;7.37;3.97;;;16.70;99.90;;;;;;4212974;28;21452;-76
2023/07/22 08:35:13;;;;;;;9.20;4.33;;;16.80;99.90;;;;;;4211521;28;20540;-78
2023/07/22 08:37:15;;;;;;;6.80;4.03;;;16.90;99.90;;;;;;4215589;28;20221;-79
2023/07/22 08:39:17;;;;;;;6.70;4.57;;;17.10;99.90;;;;;;4212061;28;20239;-78
2023/07/22 08:41:19;;;;;;;5.83;3.80;;;17.20;99.90;;;;;;4213733;28;20198;-79
2023/07/22 08:43:22;;;;;;;7.37;4.20;;;17.30;99.90;;;;;;4214259;28;20209;-77
2023/07/22 08:45:30;;;;;;;7.03;4.17;;;17.40;99.90;;;;;;4214702;28;20315;-78
2023/07/22 08:47:33;;;;;;;8.30;4.37;;;17.50;99.90;;;;;;4213532;28;20279;-79
2023/07/22 08:49:35;;;;;;;7.73;4.20;;;17.40;99.90;;;;;;4221450;28;20319;-78
2023/07/22 08:51:38;;;;;;;5.30;3.40;;;17.40;99.90;;;;;;4219388;28;20239;-78
2023/07/22 08:53:39;;;;;;;5.80;3.67;;;17.40;99.90;;;;;;4218005;28;20752;-79
2023/07/22 08:55:44;;;;;;;6.17;3.60;;;17.30;99.90;;;;;;4223593;28;20210;-79
2023/07/22 08:57:47;;;;;;;7.77;3.37;;;17.40;99.90;;;;;;4212063;28;20289;-75
2023/07/22 08:59:50;;;;;;;7.17;3.60;;;17.40;99.90;;;;;;4214522;28;20732;-77
2023/07/22 09:01:54;;;;;;;5.43;3.30;;;17.50;99.90;;;;;;4215171;28;20227;-78
2023/07/22 09:03:58;;;;;;;5.00;3.47;;;17.60;99.90;;;;;;4214876;28;20299;-79
2023/07/22 09:06:01;;;;;;;6.53;3.73;;;17.60;99.90;;;;;;4214837;28;20690;-76
2023/07/22 09:08:05;;;;;;;5.87;3.50;;;17.60;99.90;;;;;;4214492;28;20269;-76
2023/07/22 09:10:10;;;;;;;7.20;3.90;;;17.60;99.90;;;;;;4213297;28;20786;-77
2023/07/22 09:12:12;;;;;;;7.67;3.67;;;17.70;99.90;;;;;;4212640;28;20207;-76
2023/07/22 09:14:15;;;;;;;5.80;3.40;;;17.80;99.90;;;;;;4214877;28;20208;-79
2023/07/22 09:16:17;;;;;;;8.37;3.67;;;17.90;99.90;;;;;;4215817;28;21586;-78
2023/07/22 09:18:22;;;;;;;6.60;3.87;;;18.00;99.90;;;;;;4216736;28;20203;-78
2023/07/22 09:20:26;;;;;;;6.23;3.80;;;18.10;99.90;;;;;;4214240;28;20317;-83
2023/07/22 09:22:28;;;;;;;7.87;3.87;;;18.20;99.90;;;;;;4215321;28;20437;-82
2023/07/22 09:24:30;;;;;;;5.90;3.70;;;18.40;99.90;;;;;;4215546;28;20299;-78
2023/07/22 09:26:33;;;;;;;4.87;2.83;;;18.40;99.90;;;;;;4211190;28;20270;-77
2023/07/22 09:28:49;;;;;;;5.17;3.17;;;18.50;99.90;;;;;;4212186;28;20239;-76
2023/07/22 09:31:03;;;;;;;10.10;3.13;;;18.60;99.90;;;;;;4213198;28;20212;-75
2023/07/22 09:33:06;;;;;;;6.40;3.10;;;18.70;99.90;;;;;;4211045;28;20244;-73
2023/07/22 09:35:09;;;;;;;6.97;3.37;;;18.70;99.90;;;;;;4214372;28;20311;-74
2023/07/22 09:37:11;;;;;;;4.00;3.00;;;18.70;99.90;;;;;;4214365;28;20307;-74
2023/07/22 09:39:15;;;;;;;5.50;3.33;;;18.70;99.90;;;;;;4212047;28;20304;-75
2023/07/22 09:41:20;;;;;;;6.77;3.30;;;18.80;99.90;;;;;;4214675;28;20383;-75
2023/07/22 09:43:24;;;;;;;5.97;3.47;;;18.80;99.90;;;;;;4212749;28;20209;-75
2023/07/22 09:45:29;;;;;;;4.50;3.30;;;18.80;99.90;;;;;;4213353;28;20300;-76
2023/07/22 09:47:40;;;;;;;4.10;2.60;;;18.90;99.90;;;;;;4211312;28;20222;-79
2023/07/22 09:49:43;;;;;;;5.33;3.40;;;19.00;99.90;;;;;;4213264;28;20254;-74
2023/07/22 09:51:46;;;;;;;5.67;3.43;;;19.20;99.90;;;;;;4212835;28;20696;-73
2023/07/22 09:53:49;;;;;;;4.97;3.23;;;19.20;99.90;;;;;;4213419;28;20213;-73
2023/07/22 09:55:53;;;;;;;6.50;3.30;;;19.40;99.90;;;;;;4212128;28;20229;-75
2023/07/22 09:57:56;;;;;;;6.17;3.23;;;19.50;99.90;;;;;;4212342;28;20562;-76
2023/07/22 09:59:57;;;;;;;7.97;3.30;;;19.50;99.90;;;;;;4210603;28;20586;-75
2023/07/22 10:02:02;;;;;;;6.53;3.33;;;19.60;99.90;;;;;;4212490;28;20205;-75
2023/07/22 10:04:06;;;;;;;6.00;2.80;;;19.60;99.90;;;;;;4211912;28;20205;-75
2023/07/22 10:06:09;;;;;;;4.90;2.70;;;19.60;99.90;;;;;;4213439;28;20690;-75
2023/07/22 10:08:15;;;;;;;4.70;3.13;;;19.70;99.90;;;;;;4212733;28;20916;-76
2023/07/22 10:10:19;;;;;;;5.87;3.40;;;19.70;99.90;;;;;;4213627;28;20737;-75
2023/07/22 10:12:22;;;;;;;5.73;3.70;;;19.70;99.90;;;;;;4212606;28;20205;-75
2023/07/22 10:14:24;;;;;;;5.60;3.53;;;19.80;99.90;;;;;;4214570;28;20215;-74
2023/07/22 10:16:26;;;;;;;4.77;3.33;;;19.80;99.90;;;;;;4214412;28;20236;-76
2023/07/22 10:18:29;;;;;;;5.23;3.10;;;19.80;99.90;;;;;;4212216;28;20208;-75
2023/07/22 10:20:34;;;;;;;6.97;3.30;;;19.90;99.90;;;;;;4211216;28;20295;-74
2023/07/22 10:22:37;;;;;;;3.97;3.10;;;20.00;99.90;;;;;;4212276;28;20216;-75
2023/07/22 10:24:50;;;;;;;5.63;3.03;;;20.00;99.90;;;;;;4213424;28;20216;-75
2023/07/22 10:26:53;;;;;;;4.30;3.00;;;20.00;99.90;;;;;;4212188;28;20268;-74